sensor_id;sensor_type;location;lat;lon;timestamp;temperature;humidity
7000;DHT22;3540;53.242;10.408;2023-08-31T00:00:09;13.40;99.90
7000;DHT22;3540;53.242;10.408;2023-08-31T00:02:36;13.30;99.90
7000;DHT22;3540;53.242;10.408;2023-08-31T00:05:02;13.30;99.90
7000;DHT22;3540;53.242;10.408;2023-08-31T00:07:29;13.30;99.90
7000;DHT22;3540;53.242;10.408;2023-08-31T00:09:55;13.30;99.90
7000;DHT22;3540;53.242;10.408;2023-08-31T00:12:20;13.30;99.90
7000;DHT22;3540;53.242;10.408;2023-08-31T00:14:49;13.30;99.90
7000;DHT22;3540;53.242;10.408;2023-08-31T00:17:15;13.30;99.90
7000;DHT22;3540;53.242;10.408;2023-08-31T00:19:40;13.40;99.90
7000;DHT22;3540;53.242;10.408;2023-08-31T00:22:06;13.40;99.90
7000;DHT22;3540;53.242;10.408;2023-08-31T00:24:31;13.40;99.90
7000;DHT22;3540;53.242;10.408;2023-08-31T00:27:01;13.40;99.90
7000;DHT22;3540;53.242;10.408;2023-08-31T00:29:29;13.40;99.90
7000;DHT22;3540;53.242;10.408;2023-08-31T00:31:55;13.40;99.90
7000;DHT22;3540;53.242;10.408;2023-08-31T00:34:21;13.40;99.90
7000;DHT22;3540;53.242;10.408;2023-08-31T00:36:47;13.40;99.90
7000;DHT22;3540;53.242;10.408;2023-08-31T00:39:13;13.40;99.90
7000;DHT22;3540;53.242;10.408;2023-08-31T00:41:38;13.30;99.90
7000;DHT22;3540;53.242;10.408;2023-08-31T00:44:04;13.30;99.90
7000;DHT22;3540;53.242;10.408;2023-08-31T00:46:31;13.30;99.90
7000;DHT22;3540;53.242;10.408;2023-08-31T00:48:57;13.30;99.90
7000;DHT22;3540;53.242;10.408;2023-08-31T00:51:24;13.20;99.90
7000;DHT22;3540;53.242;10.408;2023-08-31T00:53:51;13.20;99.90
7000;DHT22;3540;53.242;10.408;2023-08-31T00:56:20;13.20;99.90
7000;DHT22;3540;53.242;10.408;2023-08-31T00:58:46;13.20;99.90
7000;DHT22;3540;53.242;10.408;2023-08-31T01:04:03;13.10;99.90
7000;DHT22;3540;53.242;10.408;2023-08-31T01:06:57;13.10;99.90
7000;DHT22;3540;53.242;10.408;2023-08-31T01:09:36;13.10;99.90
7000;DHT22;3540;53.242;10.408;2023-08-31T01:12:11;13.00;99.90
7000;DHT22;3540;53.242;10.408;2023-08-31T01:14:59;13.00;99.90
7000;DHT22;3540;53.242;10.408;2023-08-31T01:17:29;13.00;99.90
7000;DHT22;3540;53.242;10.408;2023-08-31T01:19:58;13.00;99.90
7000;DHT22;3540;53.242;10.408;2023-08-31T01:22:31;13.10;99.90
7000;DHT22;3540;53.242;10.408;2023-08-31T01:24:59;13.10;99.90
7000;DHT22;3540;53.242;10.408;2023-08-31T01:27:30;13.10;99.90
7000;DHT22;3540;53.242;10.408;2023-08-31T01:29:57;13.10;99.90
7000;DHT22;3540;53.242;10.408;2023-08-31T01:32:22;13.00;99.90
7000;DHT22;3540;53.242;10.408;2023-08-31T01:34:50;13.00;99.90
7000;DHT22;3540;53.242;10.408;2023-08-31T01:37:24;13.00;99.90
7000;DHT22;3540;53.242;10.408;2023-08-31T01:39:56;13.00;99.90
7000;DHT22;3540;53.242;10.408;2023-08-31T01:42:26;12.90;99.90
7000;DHT22;3540;53.242;10.408;2023-08-31T01:44:55;12.90;99.90
7000;DHT22;3540;53.242;10.408;2023-08-31T01:47:23;12.80;99.90
7000;DHT22;3540;53.242;10.408;2023-08-31T01:49:48;12.80;99.90
7000;DHT22;3540;53.242;10.408;2023-08-31T01:52:14;12.80;99.90
7000;DHT22;3540;53.242;10.408;2023-08-31T01:54:40;12.70;99.90
7000;DHT22;3540;53.242;10.408;2023-08-31T01:57:05;12.70;99.90
7000;DHT22;3540;53.242;10.408;2023-08-31T01:59:32;12.70;99.90
7000;DHT22;3540;53.242;10.408;2023-08-31T02:01:58;12.70;99.90
7000;DHT22;3540;53.242;10.408;2023-08-31T02:04:24;12.70;99.90
7000;DHT22;3540;53.242;10.408;2023-08-31T02:06:49;12.60;99.90
7000;DHT22;3540;53.242;10.408;2023-08-31T02:09:15;12.60;99.90
7000;DHT22;3540;53.242;10.408;2023-08-31T02:11:40;12.50;99.90
7000;DHT22;3540;53.242;10.408;2023-08-31T02:14:06;12.50;99.90
7000;DHT22;3540;53.242;10.408;2023-08-31T02:16:33;12.50;99.90
7000;DHT22;3540;53.242;10.408;2023-08-31T02:18:59;12.50;99.90
7000;DHT22;3540;53.242;10.408;2023-08-31T02:21:25;12.40;99.90
7000;DHT22;3540;53.242;10.408;2023-08-31T02:23:50;12.40;99.90
7000;DHT22;3540;53.242;10.408;2023-08-31T02:26:16;12.40;99.90
7000;DHT22;3540;53.242;10.408;2023-08-31T02:28:42;12.30;99.90
7000;DHT22;3540;53.242;10.408;2023-08-31T02:31:09;12.30;99.90
7000;DHT22;3540;53.242;10.408;2023-08-31T02:33:35;12.30;99.90
7000;DHT22;3540;53.242;10.408;2023-08-31T02:36:01;12.20;99.90
7000;DHT22;3540;53.242;10.408;2023-08-31T02:38:27;12.20;99.90
7000;DHT22;3540;53.242;10.408;2023-08-31T02:40:52;12.20;99.90
7000;DHT22;3540;53.242;10.408;2023-08-31T02:43:18;12.10;99.90
7000;DHT22;3540;53.242;10.408;2023-08-31T02:45:44;12.10;99.90
7000;DHT22;3540;53.242;10.408;2023-08-31T02:48:10;12.10;99.90
7000;DHT22;3540;53.242;10.408;2023-08-31T02:50:35;12.10;99.90
7000;DHT22;3540;53.242;10.408;2023-08-31T02:53:01;12.00;99.90
7000;DHT22;3540;53.242;10.408;2023-08-31T02:55:27;12.00;99.90
7000;DHT22;3540;53.242;10.408;2023-08-31T02:57:53;12.00;99.90
7000;DHT22;3540;53.242;10.408;2023-08-31T03:00:19;12.00;99.90
7000;DHT22;3540;53.242;10.408;2023-08-31T03:02:50;11.90;99.90
7000;DHT22;3540;53.242;10.408;2023-08-31T03:05:18;11.90;99.90
7000;DHT22;3540;53.242;10.408;2023-08-31T03:07:43;11.90;99.90
7000;DHT22;3540;53.242;10.408;2023-08-31T03:10:09;11.90;99.90
7000;DHT22;3540;53.242;10.408;2023-08-31T03:12:36;11.90;99.90
7000;DHT22;3540;53.242;10.408;2023-08-31T03:15:02;11.80;99.90
7000;DHT22;3540;53.242;10.408;2023-08-31T03:17:28;11.80;99.90
7000;DHT22;3540;53.242;10.408;2023-08-31T03:19:53;11.80;99.90
7000;DHT22;3540;53.242;10.408;2023-08-31T03:22:19;11.70;99.90
7000;DHT22;3540;53.242;10.408;2023-08-31T03:24:44;11.70;99.90
7000;DHT22;3540;53.242;10.408;2023-08-31T03:27:10;11.70;99.90
7000;DHT22;3540;53.242;10.408;2023-08-31T03:29:36;11.70;99.90
7000;DHT22;3540;53.242;10.408;2023-08-31T03:32:01;11.70;99.90
7000;DHT22;3540;53.242;10.408;2023-08-31T03:34:31;11.60;99.90
7000;DHT22;3540;53.242;10.408;2023-08-31T03:36:58;11.60;99.90
7000;DHT22;3540;53.242;10.408;2023-08-31T03:39:24;11.50;99.90
7000;DHT22;3540;53.242;10.408;2023-08-31T03:41:50;11.50;99.90
7000;DHT22;3540;53.242;10.408;2023-08-31T03:44:16;11.50;99.90
7000;DHT22;3540;53.242;10.408;2023-08-31T03:46:42;11.50;99.90
7000;DHT22;3540;53.242;10.408;2023-08-31T03:49:08;11.40;99.90
7000;DHT22;3540;53.242;10.408;2023-08-31T03:51:34;11.40;99.90
7000;DHT22;3540;53.242;10.408;2023-08-31T03:53:59;11.30;99.90
7000;DHT22;3540;53.242;10.408;2023-08-31T03:56:25;11.40;99.90
7000;DHT22;3540;53.242;10.408;2023-08-31T03:58:52;11.30;99.90
7000;DHT22;3540;53.242;10.408;2023-08-31T04:01:18;11.30;99.90
7000;DHT22;3540;53.242;10.408;2023-08-31T04:03:43;11.30;99.90
7000;DHT22;3540;53.242;10.408;2023-08-31T04:06:09;11.20;99.90
7000;DHT22;3540;53.242;10.408;2023-08-31T04:08:34;11.20;99.90
7000;DHT22;3540;53.242;10.408;2023-08-31T04:11:00;11.20;99.90
7000;DHT22;3540;53.242;10.408;2023-08-31T04:13:26;11.10;99.90
7000;DHT22;3540;53.242;10.408;2023-08-31T04:15:54;11.10;99.90
7000;DHT22;3540;53.242;10.408;2023-08-31T04:18:21;11.10;99.90
7000;DHT22;3540;53.242;10.408;2023-08-31T04:20:51;11.10;99.90
7000;DHT22;3540;53.242;10.408;2023-08-31T04:23:17;11.00;99.90
7000;DHT22;3540;53.242;10.408;2023-08-31T04:25:43;11.00;99.90
7000;DHT22;3540;53.242;10.408;2023-08-31T04:28:09;11.00;99.90
7000;DHT22;3540;53.242;10.408;2023-08-31T04:30:34;11.00;99.90
7000;DHT22;3540;53.242;10.408;2023-08-31T04:33:00;10.90;99.90
7000;DHT22;3540;53.242;10.408;2023-08-31T04:35:26;11.00;99.90
7000;DHT22;3540;53.242;10.408;2023-08-31T04:37:51;10.90;99.90
7000;DHT22;3540;53.242;10.408;2023-08-31T04:40:17;11.00;99.90
7000;DHT22;3540;53.242;10.408;2023-08-31T04:42:43;11.00;99.90
7000;DHT22;3540;53.242;10.408;2023-08-31T04:45:09;11.00;99.90
7000;DHT22;3540;53.242;10.408;2023-08-31T04:47:36;11.00;99.90
7000;DHT22;3540;53.242;10.408;2023-08-31T04:50:02;11.00;99.90
7000;DHT22;3540;53.242;10.408;2023-08-31T04:52:28;11.00;99.90
7000;DHT22;3540;53.242;10.408;2023-08-31T04:54:54;11.00;99.90
7000;DHT22;3540;53.242;10.408;2023-08-31T04:57:19;11.00;99.90
7000;DHT22;3540;53.242;10.408;2023-08-31T04:59:46;11.00;99.90
7000;DHT22;3540;53.242;10.408;2023-08-31T05:02:12;11.00;99.90
7000;DHT22;3540;53.242;10.408;2023-08-31T05:04:37;11.00;99.90
7000;DHT22;3540;53.242;10.408;2023-08-31T05:07:03;11.10;99.90
7000;DHT22;3540;53.242;10.408;2023-08-31T05:09:29;11.10;99.90
7000;DHT22;3540;53.242;10.408;2023-08-31T05:11:58;11.10;99.90
7000;DHT22;3540;53.242;10.408;2023-08-31T05:14:24;11.10;99.90
7000;DHT22;3540;53.242;10.408;2023-08-31T05:16:50;11.10;99.90
7000;DHT22;3540;53.242;10.408;2023-08-31T05:19:16;11.10;99.90
7000;DHT22;3540;53.242;10.408;2023-08-31T05:21:41;11.20;99.90
7000;DHT22;3540;53.242;10.408;2023-08-31T05:24:07;11.20;99.90
7000;DHT22;3540;53.242;10.408;2023-08-31T05:26:33;11.30;99.90
7000;DHT22;3540;53.242;10.408;2023-08-31T05:28:58;11.30;99.90
7000;DHT22;3540;53.242;10.408;2023-08-31T05:31:24;11.30;99.90
7000;DHT22;3540;53.242;10.408;2023-08-31T05:33:50;11.40;99.90
7000;DHT22;3540;53.242;10.408;2023-08-31T05:36:15;11.40;99.90
7000;DHT22;3540;53.242;10.408;2023-08-31T05:38:41;11.50;99.90
7000;DHT22;3540;53.242;10.408;2023-08-31T05:41:08;11.60;99.90
7000;DHT22;3540;53.242;10.408;2023-08-31T05:43:35;11.60;99.90
7000;DHT22;3540;53.242;10.408;2023-08-31T05:46:02;11.60;99.90
7000;DHT22;3540;53.242;10.408;2023-08-31T05:48:28;11.70;99.90
7000;DHT22;3540;53.242;10.408;2023-08-31T05:50:54;11.80;99.90
7000;DHT22;3540;53.242;10.408;2023-08-31T05:53:20;11.80;99.90
7000;DHT22;3540;53.242;10.408;2023-08-31T05:55:47;11.80;99.90
7000;DHT22;3540;53.242;10.408;2023-08-31T05:58:12;11.80;99.90
7000;DHT22;3540;53.242;10.408;2023-08-31T06:00:38;11.90;99.90
7000;DHT22;3540;53.242;10.408;2023-08-31T06:03:04;12.00;99.90
7000;DHT22;3540;53.242;10.408;2023-08-31T06:05:31;12.00;99.90
7000;DHT22;3540;53.242;10.408;2023-08-31T06:07:58;12.00;99.90
7000;DHT22;3540;53.242;10.408;2023-08-31T06:10:23;12.10;99.90
7000;DHT22;3540;53.242;10.408;2023-08-31T06:12:50;12.10;99.90
7000;DHT22;3540;53.242;10.408;2023-08-31T06:15:16;12.20;99.90
7000;DHT22;3540;53.242;10.408;2023-08-31T06:17:43;12.20;99.90
7000;DHT22;3540;53.242;10.408;2023-08-31T06:20:09;12.20;99.90
7000;DHT22;3540;53.242;10.408;2023-08-31T06:22:35;12.30;99.90
7000;DHT22;3540;53.242;10.408;2023-08-31T06:25:01;12.30;99.90
7000;DHT22;3540;53.242;10.408;2023-08-31T06:27:26;12.40;99.90
7000;DHT22;3540;53.242;10.408;2023-08-31T06:29:52;12.40;99.90
7000;DHT22;3540;53.242;10.408;2023-08-31T06:32:18;12.50;99.90
7000;DHT22;3540;53.242;10.408;2023-08-31T06:34:44;12.60;99.90
7000;DHT22;3540;53.242;10.408;2023-08-31T06:37:10;12.60;99.90
7000;DHT22;3540;53.242;10.408;2023-08-31T06:39:35;12.70;99.90
7000;DHT22;3540;53.242;10.408;2023-08-31T06:42:02;12.70;99.90
7000;DHT22;3540;53.242;10.408;2023-08-31T06:44:29;12.70;99.90
7000;DHT22;3540;53.242;10.408;2023-08-31T06:46:55;12.70;99.90
7000;DHT22;3540;53.242;10.408;2023-08-31T06:49:22;12.70;99.90
7000;DHT22;3540;53.242;10.408;2023-08-31T06:51:48;12.80;99.90
7000;DHT22;3540;53.242;10.408;2023-08-31T06:54:14;12.80;99.90
7000;DHT22;3540;53.242;10.408;2023-08-31T06:56:40;12.80;99.90
7000;DHT22;3540;53.242;10.408;2023-08-31T06:59:05;12.80;99.90
7000;DHT22;3540;53.242;10.408;2023-08-31T07:01:31;12.90;99.90
7000;DHT22;3540;53.242;10.408;2023-08-31T07:03:58;13.00;99.90
7000;DHT22;3540;53.242;10.408;2023-08-31T07:06:23;13.10;99.90
7000;DHT22;3540;53.242;10.408;2023-08-31T07:08:49;13.10;99.90
7000;DHT22;3540;53.242;10.408;2023-08-31T07:11:16;13.20;99.90
7000;DHT22;3540;53.242;10.408;2023-08-31T07:13:41;13.10;99.90
7000;DHT22;3540;53.242;10.408;2023-08-31T07:16:07;13.10;99.90
7000;DHT22;3540;53.242;10.408;2023-08-31T07:18:33;13.10;99.90
7000;DHT22;3540;53.242;10.408;2023-08-31T07:20:59;13.10;99.90
7000;DHT22;3540;53.242;10.408;2023-08-31T07:23:24;13.20;99.90
7000;DHT22;3540;53.242;10.408;2023-08-31T07:25:50;13.30;99.90
7000;DHT22;3540;53.242;10.408;2023-08-31T07:28:16;13.30;99.90
7000;DHT22;3540;53.242;10.408;2023-08-31T07:30:42;13.30;99.90
7000;DHT22;3540;53.242;10.408;2023-08-31T07:33:07;13.40;99.90
7000;DHT22;3540;53.242;10.408;2023-08-31T07:35:33;13.50;99.90
7000;DHT22;3540;53.242;10.408;2023-08-31T07:37:59;13.60;99.90
7000;DHT22;3540;53.242;10.408;2023-08-31T07:40:24;13.70;99.90
7000;DHT22;3540;53.242;10.408;2023-08-31T07:42:51;13.90;99.90
7000;DHT22;3540;53.242;10.408;2023-08-31T07:45:17;14.10;99.90
7000;DHT22;3540;53.242;10.408;2023-08-31T07:47:42;14.20;99.90
7000;DHT22;3540;53.242;10.408;2023-08-31T07:50:09;14.30;99.90
7000;DHT22;3540;53.242;10.408;2023-08-31T07:52:34;14.40;99.90
7000;DHT22;3540;53.242;10.408;2023-08-31T07:55:00;14.50;99.90
7000;DHT22;3540;53.242;10.408;2023-08-31T07:57:26;14.50;99.90
7000;DHT22;3540;53.242;10.408;2023-08-31T07:59:52;14.30;99.90
7000;DHT22;3540;53.242;10.408;2023-08-31T08:02:18;14.20;99.90
7000;DHT22;3540;53.242;10.408;2023-08-31T08:04:46;14.20;99.90
7000;DHT22;3540;53.242;10.408;2023-08-31T08:07:11;14.00;99.90
7000;DHT22;3540;53.242;10.408;2023-08-31T08:09:37;13.90;99.90
7000;DHT22;3540;53.242;10.408;2023-08-31T08:12:03;13.60;99.90
7000;DHT22;3540;53.242;10.408;2023-08-31T08:14:29;13.40;99.90
7000;DHT22;3540;53.242;10.408;2023-08-31T08:16:55;13.40;99.90
7000;DHT22;3540;53.242;10.408;2023-08-31T08:19:22;13.40;99.90
7000;DHT22;3540;53.242;10.408;2023-08-31T08:21:49;13.30;99.90
7000;DHT22;3540;53.242;10.408;2023-08-31T08:24:14;13.30;99.90
7000;DHT22;3540;53.242;10.408;2023-08-31T08:26:40;13.50;99.90
7000;DHT22;3540;53.242;10.408;2023-08-31T08:29:06;13.50;99.90
7000;DHT22;3540;53.242;10.408;2023-08-31T08:31:31;13.50;99.90
7000;DHT22;3540;53.242;10.408;2023-08-31T08:33:57;13.70;99.90
7000;DHT22;3540;53.242;10.408;2023-08-31T08:36:22;14.10;99.90
7000;DHT22;3540;53.242;10.408;2023-08-31T08:38:48;14.30;99.90
7000;DHT22;3540;53.242;10.408;2023-08-31T08:41:14;14.40;99.90
7000;DHT22;3540;53.242;10.408;2023-08-31T08:43:43;14.30;99.90
7000;DHT22;3540;53.242;10.408;2023-08-31T08:46:09;14.40;99.90
7000;DHT22;3540;53.242;10.408;2023-08-31T08:48:36;14.50;99.90
7000;DHT22;3540;53.242;10.408;2023-08-31T08:51:03;14.70;99.90
7000;DHT22;3540;53.242;10.408;2023-08-31T08:53:29;14.90;99.90
7000;DHT22;3540;53.242;10.408;2023-08-31T08:55:55;14.90;99.90
7000;DHT22;3540;53.242;10.408;2023-08-31T08:58:21;14.80;99.90
7000;DHT22;3540;53.242;10.408;2023-08-31T09:00:47;14.90;99.90
7000;DHT22;3540;53.242;10.408;2023-08-31T09:03:13;15.00;99.90
7000;DHT22;3540;53.242;10.408;2023-08-31T09:05:39;15.20;99.90
7000;DHT22;3540;53.242;10.408;2023-08-31T09:08:07;15.50;99.90
7000;DHT22;3540;53.242;10.408;2023-08-31T09:10:39;15.30;99.90
7000;DHT22;3540;53.242;10.408;2023-08-31T09:13:07;15.40;99.90
7000;DHT22;3540;53.242;10.408;2023-08-31T09:18:30;15.70;99.90
7000;DHT22;3540;53.242;10.408;2023-08-31T09:20:57;15.80;99.90
7000;DHT22;3540;53.242;10.408;2023-08-31T09:23:23;16.00;99.90
7000;DHT22;3540;53.242;10.408;2023-08-31T09:25:53;16.00;99.90
7000;DHT22;3540;53.242;10.408;2023-08-31T09:28:24;15.80;99.90
7000;DHT22;3540;53.242;10.408;2023-08-31T09:30:52;15.50;99.90
7000;DHT22;3540;53.242;10.408;2023-08-31T09:33:19;15.20;99.90
7000;DHT22;3540;53.242;10.408;2023-08-31T09:35:54;15.00;99.90
7000;DHT22;3540;53.242;10.408;2023-08-31T09:38:21;14.70;99.90
7000;DHT22;3540;53.242;10.408;2023-08-31T09:40:47;14.50;99.90
7000;DHT22;3540;53.242;10.408;2023-08-31T09:43:19;14.30;99.90
7000;DHT22;3540;53.242;10.408;2023-08-31T09:45:46;14.20;99.90
7000;DHT22;3540;53.242;10.408;2023-08-31T09:48:13;14.10;99.90
7000;DHT22;3540;53.242;10.408;2023-08-31T09:50:43;14.00;99.90
7000;DHT22;3540;53.242;10.408;2023-08-31T09:53:10;14.10;99.90
7000;DHT22;3540;53.242;10.408;2023-08-31T09:55:39;14.00;99.90
7000;DHT22;3540;53.242;10.408;2023-08-31T09:58:07;13.90;99.90
7000;DHT22;3540;53.242;10.408;2023-08-31T10:00:36;13.90;99.90
7000;DHT22;3540;53.242;10.408;2023-08-31T10:03:04;13.80;99.90
7000;DHT22;3540;53.242;10.408;2023-08-31T10:05:30;13.80;99.90
7000;DHT22;3540;53.242;10.408;2023-08-31T10:07:57;13.70;99.90
7000;DHT22;3540;53.242;10.408;2023-08-31T10:10:24;13.70;99.90
7000;DHT22;3540;53.242;10.408;2023-08-31T10:12:50;13.90;99.90
7000;DHT22;3540;53.242;10.408;2023-08-31T10:15:17;14.20;99.90
7000;DHT22;3540;53.242;10.408;2023-08-31T10:17:43;14.30;99.90
7000;DHT22;3540;53.242;10.408;2023-08-31T10:20:11;14.70;99.90
7000;DHT22;3540;53.242;10.408;2023-08-31T10:22:37;14.70;99.90
7000;DHT22;3540;53.242;10.408;2023-08-31T10:25:06;15.10;99.90
7000;DHT22;3540;53.242;10.408;2023-08-31T10:27:39;15.50;99.90
7000;DHT22;3540;53.242;10.408;2023-08-31T10:33:21;15.60;99.90
7000;DHT22;3540;53.242;10.408;2023-08-31T10:40:39;15.40;99.90
7000;DHT22;3540;53.242;10.408;2023-08-31T10:43:15;15.00;99.90
7000;DHT22;3540;53.242;10.408;2023-08-31T10:45:44;14.90;99.90
7000;DHT22;3540;53.242;10.408;2023-08-31T10:48:10;15.00;99.90
7000;DHT22;3540;53.242;10.408;2023-08-31T10:50:46;15.10;99.90
7000;DHT22;3540;53.242;10.408;2023-08-31T10:53:14;15.30;99.90
7000;DHT22;3540;53.242;10.408;2023-08-31T10:55:52;15.40;99.90
7000;DHT22;3540;53.242;10.408;2023-08-31T10:58:18;15.40;99.90
7000;DHT22;3540;53.242;10.408;2023-08-31T11:01:02;15.50;99.90
7000;DHT22;3540;53.242;10.408;2023-08-31T11:03:29;15.70;99.90
7000;DHT22;3540;53.242;10.408;2023-08-31T11:05:57;15.80;99.90
7000;DHT22;3540;53.242;10.408;2023-08-31T11:08:25;16.00;99.90
7000;DHT22;3540;53.242;10.408;2023-08-31T11:10:52;16.10;99.90
7000;DHT22;3540;53.242;10.408;2023-08-31T11:13:23;16.10;99.90
7000;DHT22;3540;53.242;10.408;2023-08-31T11:15:49;16.50;99.90
7000;DHT22;3540;53.242;10.408;2023-08-31T11:18:15;16.80;99.90
7000;DHT22;3540;53.242;10.408;2023-08-31T11:20:43;17.10;99.90
7000;DHT22;3540;53.242;10.408;2023-08-31T11:23:09;17.40;99.90
7000;DHT22;3540;53.242;10.408;2023-08-31T11:25:35;17.50;99.90
7000;DHT22;3540;53.242;10.408;2023-08-31T11:28:03;17.20;99.90
7000;DHT22;3540;53.242;10.408;2023-08-31T11:30:33;16.90;99.90
7000;DHT22;3540;53.242;10.408;2023-08-31T11:33:06;16.90;99.90
7000;DHT22;3540;53.242;10.408;2023-08-31T11:35:43;16.80;99.90
7000;DHT22;3540;53.242;10.408;2023-08-31T11:38:10;16.70;99.90
7000;DHT22;3540;53.242;10.408;2023-08-31T11:40:37;16.70;99.90
7000;DHT22;3540;53.242;10.408;2023-08-31T11:43:04;17.00;99.90
7000;DHT22;3540;53.242;10.408;2023-08-31T11:45:32;17.20;99.90
7000;DHT22;3540;53.242;10.408;2023-08-31T11:47:58;17.00;99.90
7000;DHT22;3540;53.242;10.408;2023-08-31T11:50:24;17.00;99.90
7000;DHT22;3540;53.242;10.408;2023-08-31T11:52:51;17.10;99.90
7000;DHT22;3540;53.242;10.408;2023-08-31T11:55:18;17.40;99.90
7000;DHT22;3540;53.242;10.408;2023-08-31T11:57:49;17.40;99.90
7000;DHT22;3540;53.242;10.408;2023-08-31T12:00:17;17.20;99.90
7000;DHT22;3540;53.242;10.408;2023-08-31T12:02:43;17.00;99.90
7000;DHT22;3540;53.242;10.408;2023-08-31T12:05:11;16.80;99.90
7000;DHT22;3540;53.242;10.408;2023-08-31T12:07:41;16.80;99.90
7000;DHT22;3540;53.242;10.408;2023-08-31T12:10:08;16.90;99.90
7000;DHT22;3540;53.242;10.408;2023-08-31T12:12:34;17.10;99.90
7000;DHT22;3540;53.242;10.408;2023-08-31T12:15:01;17.30;99.90
7000;DHT22;3540;53.242;10.408;2023-08-31T12:17:29;17.20;99.90
7000;DHT22;3540;53.242;10.408;2023-08-31T12:20:02;16.90;99.90
7000;DHT22;3540;53.242;10.408;2023-08-31T12:22:30;16.90;99.90
7000;DHT22;3540;53.242;10.408;2023-08-31T12:24:56;16.70;99.90
7000;DHT22;3540;53.242;10.408;2023-08-31T12:27:21;16.60;99.90
7000;DHT22;3540;53.242;10.408;2023-08-31T12:29:47;16.50;99.90
7000;DHT22;3540;53.242;10.408;2023-08-31T12:32:12;16.40;99.90
7000;DHT22;3540;53.242;10.408;2023-08-31T12:34:38;16.40;99.90
7000;DHT22;3540;53.242;10.408;2023-08-31T12:37:04;16.40;99.90
7000;DHT22;3540;53.242;10.408;2023-08-31T12:39:30;16.50;99.90
7000;DHT22;3540;53.242;10.408;2023-08-31T12:41:57;16.90;99.90
7000;DHT22;3540;53.242;10.408;2023-08-31T12:44:23;17.20;99.90
7000;DHT22;3540;53.242;10.408;2023-08-31T12:46:51;17.50;99.90
7000;DHT22;3540;53.242;10.408;2023-08-31T12:49:16;17.90;99.90
7000;DHT22;3540;53.242;10.408;2023-08-31T12:51:42;18.10;99.90
7000;DHT22;3540;53.242;10.408;2023-08-31T12:54:08;18.20;99.90
7000;DHT22;3540;53.242;10.408;2023-08-31T12:56:34;18.40;99.90
7000;DHT22;3540;53.242;10.408;2023-08-31T12:59:00;18.90;99.90
7000;DHT22;3540;53.242;10.408;2023-08-31T13:01:25;18.50;99.90
7000;DHT22;3540;53.242;10.408;2023-08-31T13:03:51;18.20;99.90
7000;DHT22;3540;53.242;10.408;2023-08-31T13:06:18;17.70;99.90
7000;DHT22;3540;53.242;10.408;2023-08-31T13:08:45;17.60;99.90
7000;DHT22;3540;53.242;10.408;2023-08-31T13:11:11;17.60;99.90
7000;DHT22;3540;53.242;10.408;2023-08-31T13:13:38;17.50;99.90
7000;DHT22;3540;53.242;10.408;2023-08-31T13:16:04;17.70;99.90
7000;DHT22;3540;53.242;10.408;2023-08-31T13:18:29;17.70;99.90
7000;DHT22;3540;53.242;10.408;2023-08-31T13:20:55;17.60;99.90
7000;DHT22;3540;53.242;10.408;2023-08-31T13:23:21;17.50;99.90
7000;DHT22;3540;53.242;10.408;2023-08-31T13:25:48;17.60;99.90
7000;DHT22;3540;53.242;10.408;2023-08-31T13:28:14;18.20;99.90
7000;DHT22;3540;53.242;10.408;2023-08-31T13:30:39;18.60;99.90
7000;DHT22;3540;53.242;10.408;2023-08-31T13:33:06;18.80;99.90
7000;DHT22;3540;53.242;10.408;2023-08-31T13:35:33;18.80;99.90
7000;DHT22;3540;53.242;10.408;2023-08-31T13:37:58;18.50;99.90
7000;DHT22;3540;53.242;10.408;2023-08-31T13:40:24;18.20;99.90
7000;DHT22;3540;53.242;10.408;2023-08-31T13:42:57;17.70;99.90
7000;DHT22;3540;53.242;10.408;2023-08-31T13:45:26;17.30;99.90
7000;DHT22;3540;53.242;10.408;2023-08-31T13:47:52;17.20;99.90
7000;DHT22;3540;53.242;10.408;2023-08-31T13:50:18;16.80;99.90
7000;DHT22;3540;53.242;10.408;2023-08-31T13:52:44;16.00;99.90
7000;DHT22;3540;53.242;10.408;2023-08-31T13:55:10;15.50;99.90
7000;DHT22;3540;53.242;10.408;2023-08-31T13:57:36;15.00;99.90
7000;DHT22;3540;53.242;10.408;2023-08-31T14:00:02;14.70;99.90
7000;DHT22;3540;53.242;10.408;2023-08-31T14:02:30;14.40;99.90
7000;DHT22;3540;53.242;10.408;2023-08-31T14:04:56;14.20;99.90
7000;DHT22;3540;53.242;10.408;2023-08-31T14:07:22;13.90;99.90
7000;DHT22;3540;53.242;10.408;2023-08-31T14:09:47;13.50;99.90
7000;DHT22;3540;53.242;10.408;2023-08-31T14:12:13;13.30;99.90
7000;DHT22;3540;53.242;10.408;2023-08-31T14:14:39;13.20;99.90
7000;DHT22;3540;53.242;10.408;2023-08-31T14:17:06;13.00;99.90
7000;DHT22;3540;53.242;10.408;2023-08-31T14:19:33;12.90;99.90
7000;DHT22;3540;53.242;10.408;2023-08-31T14:22:01;12.80;99.90
7000;DHT22;3540;53.242;10.408;2023-08-31T14:24:29;12.90;99.90
7000;DHT22;3540;53.242;10.408;2023-08-31T14:26:54;13.30;99.90
7000;DHT22;3540;53.242;10.408;2023-08-31T14:29:20;13.60;99.90
7000;DHT22;3540;53.242;10.408;2023-08-31T14:31:46;13.90;99.90
7000;DHT22;3540;53.242;10.408;2023-08-31T14:34:11;14.10;99.90
7000;DHT22;3540;53.242;10.408;2023-08-31T14:36:37;14.20;99.90
7000;DHT22;3540;53.242;10.408;2023-08-31T14:39:03;14.20;99.90
7000;DHT22;3540;53.242;10.408;2023-08-31T14:41:30;14.30;99.90
7000;DHT22;3540;53.242;10.408;2023-08-31T14:43:56;14.40;99.90
7000;DHT22;3540;53.242;10.408;2023-08-31T14:46:21;14.60;99.90
7000;DHT22;3540;53.242;10.408;2023-08-31T14:48:47;14.60;99.90
7000;DHT22;3540;53.242;10.408;2023-08-31T14:51:15;14.80;99.90
7000;DHT22;3540;53.242;10.408;2023-08-31T14:53:40;14.80;99.90
7000;DHT22;3540;53.242;10.408;2023-08-31T14:56:06;14.90;99.90
7000;DHT22;3540;53.242;10.408;2023-08-31T14:58:33;15.10;99.90
7000;DHT22;3540;53.242;10.408;2023-08-31T15:00:58;15.10;99.90
7000;DHT22;3540;53.242;10.408;2023-08-31T15:03:24;15.00;99.90
7000;DHT22;3540;53.242;10.408;2023-08-31T15:05:50;15.30;99.90
7000;DHT22;3540;53.242;10.408;2023-08-31T15:08:16;15.50;99.90
7000;DHT22;3540;53.242;10.408;2023-08-31T15:10:41;15.50;99.90
7000;DHT22;3540;53.242;10.408;2023-08-31T15:13:07;15.60;99.90
7000;DHT22;3540;53.242;10.408;2023-08-31T15:15:33;15.70;99.90
7000;DHT22;3540;53.242;10.408;2023-08-31T15:17:59;15.90;99.90
7000;DHT22;3540;53.242;10.408;2023-08-31T15:20:26;16.10;99.90
7000;DHT22;3540;53.242;10.408;2023-08-31T15:22:53;16.30;99.90
7000;DHT22;3540;53.242;10.408;2023-08-31T15:25:19;16.20;99.90
7000;DHT22;3540;53.242;10.408;2023-08-31T15:27:44;16.20;99.90
7000;DHT22;3540;53.242;10.408;2023-08-31T15:30:10;16.10;99.90
7000;DHT22;3540;53.242;10.408;2023-08-31T15:32:36;16.20;99.90
7000;DHT22;3540;53.242;10.408;2023-08-31T15:35:03;16.40;99.90
7000;DHT22;3540;53.242;10.408;2023-08-31T15:37:30;16.40;99.90
7000;DHT22;3540;53.242;10.408;2023-08-31T15:39:56;16.50;99.90
7000;DHT22;3540;53.242;10.408;2023-08-31T15:42:25;16.60;99.90
7000;DHT22;3540;53.242;10.408;2023-08-31T15:44:51;16.70;99.90
7000;DHT22;3540;53.242;10.408;2023-08-31T15:47:18;16.80;99.90
7000;DHT22;3540;53.242;10.408;2023-08-31T15:49:44;16.80;99.90
7000;DHT22;3540;53.242;10.408;2023-08-31T15:52:10;16.80;99.90
7000;DHT22;3540;53.242;10.408;2023-08-31T15:54:35;16.90;99.90